createdAt,value
2018-06-14T00:00:17.045Z,12.90
2018-06-14T00:02:44.832Z,12.90
2018-06-14T00:05:12.400Z,13.00
2018-06-14T00:07:40.654Z,13.00
2018-06-14T00:10:08.875Z,12.90
2018-06-14T00:12:36.380Z,12.90
2018-06-14T00:15:04.537Z,12.90
2018-06-14T00:17:32.102Z,12.90
2018-06-14T00:19:59.621Z,12.80
2018-06-14T00:22:27.130Z,12.80
2018-06-14T00:24:54.689Z,12.80
2018-06-14T00:29:49.658Z,12.80
2018-06-14T00:32:17.232Z,12.90
2018-06-14T00:34:44.769Z,12.80
2018-06-14T00:37:12.317Z,12.90
2018-06-14T00:39:39.837Z,12.90
2018-06-14T00:42:07.369Z,12.80
2018-06-14T00:44:35.132Z,12.80
2018-06-14T00:47:02.817Z,12.80
2018-06-14T00:49:30.327Z,12.80
2018-06-14T00:51:57.870Z,12.80
2018-06-14T00:54:25.420Z,12.80
2018-06-14T00:57:04.353Z,12.70
2018-06-14T00:59:31.989Z,12.60
2018-06-14T01:04:26.940Z,12.60
2018-06-14T01:06:54.675Z,12.60
2018-06-14T01:09:22.191Z,12.60
2018-06-14T01:11:49.716Z,12.60
2018-06-14T01:14:17.218Z,12.60
2018-06-14T01:16:44.799Z,12.60
2018-06-14T01:21:39.838Z,12.50
2018-06-14T01:24:07.691Z,12.50
2018-06-14T01:26:35.252Z,12.50
2018-06-14T01:29:02.817Z,12.40
2018-06-14T01:31:30.349Z,12.40
2018-06-14T01:33:57.861Z,12.40
2018-06-14T01:36:25.469Z,12.40
2018-06-14T01:38:53.000Z,12.40
2018-06-14T01:41:20.530Z,12.40
2018-06-14T01:43:48.129Z,12.40
2018-06-14T01:46:15.862Z,12.30
2018-06-14T01:48:43.412Z,12.30
2018-06-14T01:51:10.937Z,12.30
2018-06-14T01:53:38.516Z,12.30
2018-06-14T01:56:06.110Z,12.30
2018-06-14T01:58:33.646Z,12.30
2018-06-14T02:01:01.387Z,12.20
2018-06-14T02:03:29.266Z,12.20
2018-06-14T02:05:56.801Z,12.30
2018-06-14T02:08:24.325Z,12.30
2018-06-14T02:10:51.837Z,12.30
2018-06-14T02:13:19.382Z,12.20
2018-06-14T02:15:46.881Z,12.20
2018-06-14T02:18:14.392Z,12.20
2018-06-14T02:20:41.896Z,12.20
2018-06-14T02:23:09.427Z,12.20
2018-06-14T02:25:37.106Z,12.20
2018-06-14T02:28:04.949Z,12.30
2018-06-14T02:30:32.458Z,12.30
2018-06-14T02:32:59.973Z,12.30
2018-06-14T02:35:27.526Z,12.30
2018-06-14T02:37:56.031Z,12.40
2018-06-14T02:40:23.562Z,12.40
2018-06-14T02:42:51.087Z,12.40
2018-06-14T02:45:18.625Z,12.30
2018-06-14T02:47:46.141Z,12.20
2018-06-14T02:50:13.681Z,12.20
2018-06-14T02:52:41.177Z,12.20
2018-06-14T02:55:08.706Z,12.20
2018-06-14T02:57:36.266Z,12.20
2018-06-14T03:00:04.783Z,12.10
2018-06-14T03:02:32.287Z,12.10
2018-06-14T03:04:59.874Z,12.20
2018-06-14T03:07:33.437Z,12.30
2018-06-14T03:10:01.495Z,12.20
2018-06-14T03:12:29.286Z,12.20
2018-06-14T03:14:56.827Z,12.30
2018-06-14T03:19:52.454Z,12.30
2018-06-14T03:22:21.237Z,12.30
2018-06-14T03:24:48.837Z,12.30
2018-06-14T03:27:16.709Z,12.40
2018-06-14T03:29:44.260Z,12.40
2018-06-14T03:32:11.818Z,12.40
2018-06-14T03:34:39.378Z,12.40
2018-06-14T03:37:07.038Z,12.40
2018-06-14T03:39:34.545Z,12.30
2018-06-14T03:42:07.575Z,12.30
2018-06-14T03:44:36.465Z,12.30
2018-06-14T03:47:05.363Z,12.20
2018-06-14T03:49:32.992Z,12.30
2018-06-14T03:52:00.609Z,12.40
2018-06-14T03:54:28.085Z,12.50
2018-06-14T03:56:55.808Z,12.50
2018-06-14T03:59:23.305Z,12.50
2018-06-14T04:01:50.829Z,12.50
2018-06-14T04:04:18.558Z,12.50
2018-06-14T04:09:13.573Z,12.50
2018-06-14T04:11:41.076Z,12.50
2018-06-14T04:14:08.654Z,12.70
2018-06-14T04:16:37.073Z,12.70
2018-06-14T04:19:05.105Z,12.70
2018-06-14T04:21:32.602Z,12.70
2018-06-14T04:24:00.282Z,12.80
2018-06-14T04:26:27.806Z,12.90
2018-06-14T04:31:22.940Z,13.10
2018-06-14T04:33:50.489Z,13.10
2018-06-14T04:36:18.458Z,13.20
2018-06-14T04:38:46.077Z,13.20
2018-06-14T04:41:13.566Z,13.30
2018-06-14T04:43:41.266Z,13.40
2018-06-14T04:46:08.802Z,13.60
2018-06-14T04:48:36.357Z,13.70
2018-06-14T04:51:04.142Z,13.80
2018-06-14T04:53:31.871Z,13.80
2018-06-14T04:55:59.569Z,13.90
2018-06-14T04:58:27.122Z,14.00
2018-06-14T05:00:54.764Z,14.10
2018-06-14T05:03:22.434Z,14.20
2018-06-14T05:05:50.033Z,14.30
2018-06-14T05:08:22.125Z,14.30
2018-06-14T05:10:50.051Z,14.30
2018-06-14T05:13:17.645Z,14.30
2018-06-14T05:15:45.785Z,14.30
2018-06-14T05:18:13.297Z,14.30
2018-06-14T05:20:40.921Z,14.20
2018-06-14T05:23:08.457Z,14.30
2018-06-14T05:25:36.002Z,14.30
2018-06-14T05:28:03.537Z,14.20
2018-06-14T05:30:31.056Z,14.20
2018-06-14T05:33:01.132Z,14.20
2018-06-14T05:35:28.716Z,14.30
2018-06-14T05:37:56.238Z,14.30
2018-06-14T05:40:23.785Z,14.40
2018-06-14T05:45:18.941Z,14.50
2018-06-14T05:47:46.486Z,14.60
2018-06-14T05:52:41.481Z,14.70
2018-06-14T05:55:09.036Z,14.80
2018-06-14T05:57:36.633Z,14.90
2018-06-14T06:00:04.802Z,15.00
2018-06-14T06:02:32.329Z,15.10
2018-06-14T06:04:59.873Z,15.20
2018-06-14T06:07:27.397Z,15.40
2018-06-14T06:09:54.936Z,15.40
2018-06-14T06:12:22.468Z,15.50
2018-06-14T06:14:50.010Z,15.50
2018-06-14T06:17:17.569Z,15.60
2018-06-14T06:19:45.191Z,15.70
2018-06-14T06:22:12.729Z,15.80
2018-06-14T06:24:40.277Z,15.80
2018-06-14T06:27:07.798Z,15.90
2018-06-14T06:29:35.304Z,15.90
2018-06-14T06:32:02.866Z,16.00
2018-06-14T06:34:30.381Z,16.10
2018-06-14T06:36:57.982Z,16.10
2018-06-14T06:39:25.504Z,16.10
2018-06-14T06:41:53.041Z,16.20
2018-06-14T06:44:20.555Z,16.30
2018-06-14T06:46:48.053Z,16.40
2018-06-14T06:49:15.569Z,16.50
2018-06-14T06:51:43.110Z,16.50
2018-06-14T06:54:10.613Z,16.60
2018-06-14T06:56:38.162Z,16.60
2018-06-14T06:59:05.705Z,16.70
2018-06-14T07:01:33.300Z,16.80
2018-06-14T07:04:00.818Z,16.90
2018-06-14T07:06:28.394Z,16.90
2018-06-14T07:08:55.876Z,17.00
2018-06-14T07:11:23.615Z,17.00
2018-06-14T07:13:51.155Z,17.00
2018-06-14T07:16:18.720Z,17.10
2018-06-14T07:18:46.448Z,17.20
2018-06-14T07:21:14.007Z,17.30
2018-06-14T07:23:41.537Z,17.30
2018-06-14T07:26:09.057Z,17.40
2018-06-14T07:28:36.585Z,17.40
2018-06-14T07:31:04.145Z,17.50
2018-06-14T07:33:31.671Z,17.50
2018-06-14T07:35:59.215Z,17.50
2018-06-14T07:38:26.745Z,17.50
2018-06-14T07:40:54.276Z,17.60
2018-06-14T07:43:21.785Z,17.70
2018-06-14T07:45:49.400Z,17.70
2018-06-14T07:48:16.951Z,17.80
2018-06-14T07:50:44.747Z,17.90
2018-06-14T07:53:12.313Z,18.00
2018-06-14T07:55:40.053Z,18.00
2018-06-14T07:58:07.572Z,18.10
2018-06-14T08:00:35.139Z,18.10
2018-06-14T08:03:02.667Z,18.20
2018-06-14T08:05:30.202Z,18.10
2018-06-14T08:07:57.735Z,18.20
2018-06-14T08:10:25.540Z,18.30
2018-06-14T08:12:53.240Z,18.40
2018-06-14T08:15:20.749Z,18.50
2018-06-14T08:17:48.334Z,18.60
2018-06-14T08:20:15.893Z,18.60
2018-06-14T08:22:43.422Z,18.70
2018-06-14T08:25:10.951Z,18.70
2018-06-14T08:27:38.521Z,18.80
2018-06-14T08:30:06.121Z,18.90
2018-06-14T08:32:33.684Z,18.90
2018-06-14T08:35:01.221Z,19.00
2018-06-14T08:37:29.798Z,18.90
2018-06-14T08:39:57.427Z,19.00
2018-06-14T08:42:25.741Z,19.00
2018-06-14T08:44:53.811Z,19.00
2018-06-14T08:47:21.325Z,19.10
2018-06-14T08:49:48.990Z,19.20
2018-06-14T08:54:43.933Z,19.40
2018-06-14T08:57:11.493Z,19.60
2018-06-14T08:59:39.022Z,19.90
2018-06-14T09:02:06.547Z,20.10
2018-06-14T09:04:34.071Z,20.30
2018-06-14T09:07:01.933Z,20.30
2018-06-14T09:09:29.477Z,20.20
2018-06-14T09:11:57.106Z,20.20
2018-06-14T09:14:24.630Z,20.20
2018-06-14T09:16:52.237Z,20.20
2018-06-14T09:19:19.765Z,20.30
2018-06-14T09:21:47.340Z,20.40
2018-06-14T09:24:14.948Z,20.50
2018-06-14T09:26:42.601Z,20.60
2018-06-14T09:29:10.105Z,20.70
2018-06-14T09:31:37.935Z,20.70
2018-06-14T09:34:05.543Z,20.70
2018-06-14T09:36:33.678Z,20.50
2018-06-14T09:39:01.305Z,20.30
2018-06-14T09:41:28.853Z,20.20
2018-06-14T09:43:56.394Z,20.10
2018-06-14T09:46:23.936Z,20.20
2018-06-14T09:48:57.073Z,20.30
2018-06-14T09:51:24.675Z,20.60
2018-06-14T09:53:52.181Z,20.80
2018-06-14T09:56:19.769Z,21.00
2018-06-14T09:58:47.297Z,21.10
2018-06-14T10:03:42.333Z,21.00
2018-06-14T10:06:09.903Z,21.10
2018-06-14T10:08:37.455Z,21.10
2018-06-14T10:11:05.370Z,21.10
2018-06-14T10:13:32.888Z,21.20
2018-06-14T10:16:00.465Z,21.40
2018-06-14T10:18:27.972Z,21.70
2018-06-14T10:20:55.529Z,21.90
2018-06-14T10:23:23.018Z,22.10
2018-06-14T10:25:50.578Z,22.40
2018-06-14T10:28:18.103Z,22.70
2018-06-14T10:30:45.685Z,22.90
2018-06-14T10:33:13.281Z,23.00
2018-06-14T10:35:40.849Z,22.90
2018-06-14T10:38:08.397Z,22.80
2018-06-14T10:40:35.950Z,22.80
2018-06-14T10:43:04.882Z,22.80
2018-06-14T10:45:33.123Z,22.70
2018-06-14T10:48:00.859Z,22.60
2018-06-14T10:50:28.504Z,22.50
2018-06-14T10:52:56.045Z,22.60
2018-06-14T10:55:23.590Z,22.50
2018-06-14T10:57:51.165Z,22.50
2018-06-14T11:00:18.951Z,22.40
2018-06-14T11:02:46.468Z,22.50
2018-06-14T11:05:14.079Z,22.50
2018-06-14T11:07:41.643Z,22.60
2018-06-14T11:10:09.396Z,22.70
2018-06-14T11:12:36.928Z,22.90
2018-06-14T11:15:04.463Z,23.20
2018-06-14T11:17:32.040Z,23.30
2018-06-14T11:19:59.653Z,23.20
2018-06-14T11:22:27.249Z,23.30
2018-06-14T11:25:00.422Z,23.60
2018-06-14T11:27:28.259Z,23.70
2018-06-14T11:29:55.896Z,23.80
2018-06-14T11:32:24.998Z,23.80
2018-06-14T11:34:53.113Z,24.00
2018-06-14T11:37:20.792Z,24.10
2018-06-14T11:39:48.340Z,24.30
2018-06-14T11:42:15.914Z,24.30
2018-06-14T11:44:43.446Z,24.40
2018-06-14T11:47:11.049Z,24.40
2018-06-14T11:49:38.586Z,24.40
2018-06-14T11:52:06.198Z,24.40
2018-06-14T11:54:33.993Z,24.50
2018-06-14T11:57:01.555Z,24.60
2018-06-14T11:59:30.454Z,24.70
2018-06-14T12:01:58.016Z,24.80
2018-06-14T12:04:25.565Z,24.90
2018-06-14T12:06:59.730Z,24.80
2018-06-14T12:09:27.310Z,24.70
2018-06-14T12:11:54.896Z,24.70
2018-06-14T12:19:18.499Z,24.60
2018-06-14T12:21:46.041Z,24.70
2018-06-14T12:24:13.627Z,24.80
2018-06-14T12:26:41.240Z,24.80
2018-06-14T12:29:11.120Z,24.60
2018-06-14T12:31:38.670Z,24.40
2018-06-14T12:34:06.257Z,24.30
2018-06-14T12:36:33.777Z,24.20
2018-06-14T12:39:01.394Z,24.30
2018-06-14T12:41:29.001Z,24.40
2018-06-14T12:44:03.165Z,24.50
2018-06-14T12:46:30.722Z,24.50
2018-06-14T12:48:58.253Z,24.50
2018-06-14T12:51:25.841Z,24.50
2018-06-14T12:53:53.410Z,24.70
2018-06-14T12:56:20.997Z,24.80
2018-06-14T12:58:48.574Z,25.00
2018-06-14T13:01:16.133Z,25.10
2018-06-14T13:03:43.758Z,25.20
2018-06-14T13:06:11.416Z,25.20
2018-06-14T13:08:39.194Z,25.10
2018-06-14T13:11:06.870Z,25.20
2018-06-14T13:13:34.539Z,25.30
2018-06-14T13:16:02.340Z,25.40
2018-06-14T13:18:30.165Z,25.50
2018-06-14T13:20:57.839Z,25.30
2018-06-14T13:23:25.649Z,25.20
2018-06-14T13:25:53.317Z,25.10
2018-06-14T13:28:21.005Z,25.00
2018-06-14T13:30:48.756Z,25.00
2018-06-14T13:33:16.426Z,25.00
2018-06-14T13:35:44.070Z,25.00
2018-06-14T13:38:11.697Z,25.00
2018-06-14T13:40:39.434Z,25.00
2018-06-14T13:43:07.030Z,25.10
2018-06-14T13:45:34.797Z,25.20
2018-06-14T13:48:02.403Z,25.20
2018-06-14T13:50:30.013Z,25.30
2018-06-14T13:52:57.564Z,25.30
2018-06-14T13:55:25.163Z,25.40
2018-06-14T13:57:52.768Z,25.40
2018-06-14T14:00:20.256Z,25.30
2018-06-14T14:02:47.809Z,25.30
2018-06-14T14:05:15.404Z,25.30
2018-06-14T14:07:42.958Z,25.30
2018-06-14T14:10:10.498Z,25.30
2018-06-14T14:12:38.038Z,25.30
2018-06-14T14:15:05.722Z,25.30
2018-06-14T14:17:33.445Z,25.10
2018-06-14T14:20:00.972Z,25.00
2018-06-14T14:22:28.579Z,24.80
2018-06-14T14:24:56.129Z,24.80
2018-06-14T14:27:24.438Z,24.70
2018-06-14T14:29:51.954Z,24.60
2018-06-14T14:32:19.501Z,24.40
2018-06-14T14:34:47.068Z,24.30
2018-06-14T14:37:14.577Z,24.10
2018-06-14T14:39:42.116Z,24.00
2018-06-14T14:42:09.616Z,23.70
2018-06-14T14:44:37.345Z,23.60
2018-06-14T14:47:04.938Z,23.20
2018-06-14T14:49:32.473Z,23.00
2018-06-14T14:52:00.038Z,22.70
2018-06-14T14:54:27.592Z,22.40
2018-06-14T14:56:55.262Z,22.30
2018-06-14T14:59:22.825Z,22.10
2018-06-14T15:01:50.426Z,22.00
2018-06-14T15:04:18.043Z,21.90
2018-06-14T15:06:45.581Z,21.70
2018-06-14T15:09:13.367Z,21.60
2018-06-14T15:11:41.029Z,21.60
2018-06-14T15:14:08.552Z,21.50
2018-06-14T15:16:36.435Z,21.50
2018-06-14T15:19:04.475Z,21.30
2018-06-14T15:21:32.466Z,21.20
2018-06-14T15:24:00.255Z,21.10
2018-06-14T15:26:28.196Z,21.10
2018-06-14T15:28:56.903Z,21.10
2018-06-14T15:31:24.955Z,21.00
2018-06-14T15:33:53.133Z,20.90
2018-06-14T15:36:20.921Z,20.80
2018-06-14T15:38:51.909Z,20.80
2018-06-14T15:41:19.580Z,20.70
2018-06-14T15:43:47.497Z,20.50
2018-06-14T15:46:15.453Z,20.50
2018-06-14T15:48:43.289Z,20.30
2018-06-14T15:51:11.336Z,20.20
2018-06-14T15:53:39.205Z,20.20
2018-06-14T15:56:23.846Z,20.10
2018-06-14T15:58:51.660Z,19.90
2018-06-14T16:01:19.345Z,19.80
2018-06-14T16:03:46.946Z,19.70
2018-06-14T16:06:15.092Z,19.60
2018-06-14T16:08:43.030Z,19.50
2018-06-14T16:11:10.887Z,19.40
2018-06-14T16:13:38.554Z,19.30
2018-06-14T16:16:06.818Z,19.30
2018-06-14T16:18:34.526Z,19.20
2018-06-14T16:21:02.286Z,19.10
2018-06-14T16:25:57.927Z,19.00
2018-06-14T16:28:26.105Z,19.00
2018-06-14T16:30:53.909Z,19.00
2018-06-14T16:33:21.801Z,18.90
2018-06-14T16:35:49.557Z,18.80
2018-06-14T16:38:17.551Z,18.80
2018-06-14T16:40:47.276Z,18.70
2018-06-14T16:43:15.243Z,18.70
2018-06-14T16:45:42.964Z,18.70
2018-06-14T16:48:11.346Z,18.70
2018-06-14T16:50:39.157Z,18.60
2018-06-14T16:53:07.356Z,18.60
2018-06-14T16:55:35.258Z,18.70
2018-06-14T16:58:03.128Z,18.70
2018-06-14T17:00:31.113Z,18.80
2018-06-14T17:02:59.164Z,18.80
2018-06-14T17:05:27.020Z,18.80
2018-06-14T17:07:54.905Z,18.80
2018-06-14T17:10:22.776Z,18.80
2018-06-14T17:15:18.481Z,18.80
2018-06-14T17:17:46.130Z,18.80
2018-06-14T17:20:13.859Z,18.80
2018-06-14T17:22:41.653Z,18.80
2018-06-14T17:25:09.280Z,18.80
2018-06-14T17:27:36.985Z,18.80
2018-06-14T17:30:04.980Z,18.70
2018-06-14T17:32:32.663Z,18.80
2018-06-14T17:35:00.441Z,18.80
2018-06-14T17:37:28.007Z,18.80
2018-06-14T17:39:55.554Z,18.80
2018-06-14T17:42:23.102Z,18.80
2018-06-14T17:44:50.660Z,18.90
2018-06-14T17:47:18.217Z,18.80
2018-06-14T17:49:46.831Z,18.70
2018-06-14T17:52:14.524Z,18.60
2018-06-14T17:54:42.082Z,18.50
2018-06-14T17:57:09.610Z,18.50
2018-06-14T17:59:37.154Z,18.50
2018-06-14T18:02:04.895Z,18.50
2018-06-14T18:04:33.519Z,18.60
2018-06-14T18:07:01.094Z,18.40
2018-06-14T18:09:30.667Z,18.40
2018-06-14T18:11:58.240Z,18.40
2018-06-14T18:14:25.781Z,18.30
2018-06-14T18:16:54.099Z,18.40
2018-06-14T18:19:21.693Z,18.50
2018-06-14T18:21:49.282Z,18.40
2018-06-14T18:24:17.082Z,18.50
2018-06-14T18:26:45.906Z,18.50
2018-06-14T18:29:13.475Z,18.40
2018-06-14T18:31:41.084Z,18.50
2018-06-14T18:34:08.681Z,18.50
2018-06-14T18:36:36.246Z,18.50
2018-06-14T18:39:07.011Z,18.50
2018-06-14T18:41:34.553Z,18.50
2018-06-14T18:44:02.255Z,18.60
2018-06-14T18:46:29.897Z,18.60
2018-06-14T18:48:57.531Z,18.60
2018-06-14T18:51:25.063Z,18.60
2018-06-14T18:53:52.666Z,18.70
2018-06-14T18:56:20.229Z,18.80
2018-06-14T18:58:47.786Z,18.70
2018-06-14T19:01:15.387Z,18.80
2018-06-14T19:03:42.942Z,18.80
2018-06-14T19:06:10.488Z,18.80
2018-06-14T19:08:38.054Z,18.80
2018-06-14T19:11:05.896Z,18.70
2018-06-14T19:13:33.479Z,18.70
2018-06-14T19:16:01.030Z,18.60
2018-06-14T19:18:28.577Z,18.60
2018-06-14T19:20:56.156Z,18.60
2018-06-14T19:23:23.714Z,18.60
2018-06-14T19:25:51.309Z,18.40
2018-06-14T19:28:18.849Z,18.30
2018-06-14T19:30:46.366Z,18.30
2018-06-14T19:33:13.893Z,18.20
2018-06-14T19:35:41.401Z,18.10
2018-06-14T19:38:09.023Z,18.10
2018-06-14T19:40:36.669Z,18.10
2018-06-14T19:43:04.433Z,18.00
2018-06-14T19:45:32.049Z,18.10
2018-06-14T19:47:59.762Z,18.10
2018-06-14T19:50:27.417Z,18.00
2018-06-14T19:52:54.961Z,18.00
2018-06-14T19:55:22.552Z,18.00
2018-06-14T19:57:50.077Z,18.00
2018-06-14T20:00:17.631Z,17.90
2018-06-14T20:02:45.163Z,17.90
2018-06-14T20:05:12.685Z,17.80
2018-06-14T20:07:40.208Z,17.70
2018-06-14T20:10:07.749Z,17.70
2018-06-14T20:12:35.308Z,17.80
2018-06-14T20:15:02.865Z,17.70
2018-06-14T20:17:30.389Z,17.80
2018-06-14T20:19:57.977Z,17.70
2018-06-14T20:22:25.505Z,17.60
2018-06-14T20:24:53.033Z,17.70
2018-06-14T20:27:20.544Z,17.60
2018-06-14T20:29:48.135Z,17.60
2018-06-14T20:32:15.670Z,17.70
2018-06-14T20:34:43.226Z,17.70
2018-06-14T20:37:10.794Z,17.80
2018-06-14T20:39:38.323Z,17.80
2018-06-14T20:42:06.027Z,17.80
2018-06-14T20:44:33.504Z,17.80
2018-06-14T20:47:01.049Z,17.70
2018-06-14T20:49:28.569Z,17.80
2018-06-14T20:51:56.116Z,17.80
2018-06-14T20:54:23.684Z,17.70
2018-06-14T20:56:51.230Z,17.70
2018-06-14T20:59:18.756Z,17.70
2018-06-14T21:01:46.925Z,17.70
2018-06-14T21:04:14.573Z,17.60
2018-06-14T21:06:42.806Z,17.50
2018-06-14T21:09:10.796Z,17.30
2018-06-14T21:11:38.521Z,17.20
2018-06-14T21:14:06.249Z,17.10
2018-06-14T21:16:34.253Z,17.10
2018-06-14T21:19:01.765Z,17.10
2018-06-14T21:21:29.730Z,17.10
2018-06-14T21:23:57.413Z,17.10
2018-06-14T21:26:25.063Z,17.00
2018-06-14T21:28:52.594Z,17.00
2018-06-14T21:31:20.117Z,17.00
2018-06-14T21:33:47.623Z,17.00
2018-06-14T21:36:15.279Z,17.10
2018-06-14T21:38:42.833Z,17.10
2018-06-14T21:41:10.388Z,17.10
2018-06-14T21:43:38.018Z,17.10
2018-06-14T21:46:06.228Z,17.10
2018-06-14T21:48:33.825Z,17.00
2018-06-14T21:51:01.362Z,17.10
2018-06-14T21:53:29.095Z,17.00
2018-06-14T21:55:56.663Z,17.10
2018-06-14T21:58:24.183Z,17.10
2018-06-14T22:00:51.856Z,17.20
2018-06-14T22:03:24.839Z,17.20
2018-06-14T22:05:52.373Z,17.20
2018-06-14T22:08:19.865Z,17.10
2018-06-14T22:10:47.410Z,17.10
2018-06-14T22:13:14.974Z,17.10
2018-06-14T22:15:42.764Z,17.10
2018-06-14T22:18:10.591Z,17.10
2018-06-14T22:20:38.158Z,17.00
2018-06-14T22:23:05.848Z,17.00
2018-06-14T22:25:33.413Z,17.00
2018-06-14T22:28:01.001Z,17.00
2018-06-14T22:30:28.575Z,17.00
2018-06-14T22:33:07.612Z,17.00
2018-06-14T22:35:35.189Z,17.00
2018-06-14T22:38:02.839Z,17.00
2018-06-14T22:40:30.409Z,17.00
2018-06-14T22:42:58.612Z,17.00
2018-06-14T22:45:26.171Z,16.90
2018-06-14T22:47:53.731Z,16.90
2018-06-14T22:50:32.566Z,16.90
2018-06-14T22:53:01.237Z,16.90
2018-06-14T22:55:28.785Z,16.90
2018-06-14T22:57:56.385Z,16.90
2018-06-14T23:02:02.726Z,16.90
2018-06-14T23:04:30.816Z,16.90
2018-06-14T23:06:58.539Z,16.80
2018-06-14T23:10:36.497Z,16.90
2018-06-14T23:13:04.768Z,16.90
2018-06-14T23:15:32.281Z,16.90
2018-06-14T23:17:59.891Z,16.90
2018-06-14T23:20:28.350Z,16.90
2018-06-14T23:22:56.708Z,17.00
2018-06-14T23:25:25.000Z,17.00
2018-06-14T23:27:52.521Z,17.00
2018-06-14T23:30:20.111Z,17.00
2018-06-14T23:32:47.738Z,17.00
2018-06-14T23:35:15.643Z,17.00
2018-06-14T23:37:43.225Z,17.00
2018-06-14T23:40:10.863Z,16.90
2018-06-14T23:42:38.390Z,16.80
2018-06-14T23:47:33.255Z,16.80
2018-06-14T23:50:00.676Z,16.80
2018-06-14T23:52:28.145Z,16.90
2018-06-14T23:54:55.577Z,16.80
2018-06-14T23:57:23.278Z,16.80
2018-06-14T23:59:51.005Z,16.90
